sensor_id;sensor_type;location;lat;lon;timestamp;temperature;humidity
51884;DHT22;37915;53.254;6.598;2023-09-19T00:00:48;14.80;99.90
51884;DHT22;37915;53.254;6.598;2023-09-19T00:03:14;14.70;99.90
51884;DHT22;37915;53.254;6.598;2023-09-19T00:05:40;14.70;99.90
51884;DHT22;37915;53.254;6.598;2023-09-19T00:08:10;14.60;99.90
51884;DHT22;37915;53.254;6.598;2023-09-19T00:10:35;14.60;99.90
51884;DHT22;37915;53.254;6.598;2023-09-19T00:13:03;14.60;99.90
51884;DHT22;37915;53.254;6.598;2023-09-19T00:15:40;14.60;99.90
51884;DHT22;37915;53.254;6.598;2023-09-19T00:18:07;14.50;99.90
51884;DHT22;37915;53.254;6.598;2023-09-19T00:20:36;14.50;99.90
51884;DHT22;37915;53.254;6.598;2023-09-19T00:23:02;14.50;99.90
51884;DHT22;37915;53.254;6.598;2023-09-19T00:25:35;14.50;99.90
51884;DHT22;37915;53.254;6.598;2023-09-19T00:28:01;14.50;99.90
51884;DHT22;37915;53.254;6.598;2023-09-19T00:30:27;14.40;99.90
51884;DHT22;37915;53.254;6.598;2023-09-19T00:32:53;14.40;99.90
51884;DHT22;37915;53.254;6.598;2023-09-19T00:35:23;14.50;99.90
51884;DHT22;37915;53.254;6.598;2023-09-19T00:37:52;14.50;99.90
51884;DHT22;37915;53.254;6.598;2023-09-19T00:40:18;14.50;99.90
51884;DHT22;37915;53.254;6.598;2023-09-19T00:42:44;14.50;99.90
51884;DHT22;37915;53.254;6.598;2023-09-19T00:45:12;14.50;99.90
51884;DHT22;37915;53.254;6.598;2023-09-19T00:47:47;14.50;99.90
51884;DHT22;37915;53.254;6.598;2023-09-19T00:50:16;14.50;99.90
51884;DHT22;37915;53.254;6.598;2023-09-19T00:52:43;14.40;99.90
51884;DHT22;37915;53.254;6.598;2023-09-19T00:55:10;14.40;99.90
51884;DHT22;37915;53.254;6.598;2023-09-19T00:57:38;14.40;99.90
51884;DHT22;37915;53.254;6.598;2023-09-19T01:00:07;14.30;99.90
51884;DHT22;37915;53.254;6.598;2023-09-19T01:02:34;14.30;99.90
51884;DHT22;37915;53.254;6.598;2023-09-19T01:05:01;14.30;99.90
51884;DHT22;37915;53.254;6.598;2023-09-19T01:07:27;14.30;99.90
51884;DHT22;37915;53.254;6.598;2023-09-19T01:09:59;14.20;99.90
51884;DHT22;37915;53.254;6.598;2023-09-19T01:18:42;14.10;99.90
51884;DHT22;37915;53.254;6.598;2023-09-19T01:29:42;14.00;99.90
51884;DHT22;37915;53.254;6.598;2023-09-19T01:32:10;14.00;99.90
51884;DHT22;37915;53.254;6.598;2023-09-19T01:37:13;13.90;99.90
51884;DHT22;37915;53.254;6.598;2023-09-19T01:39:40;13.90;99.90
51884;DHT22;37915;53.254;6.598;2023-09-19T01:47:23;13.90;99.90
51884;DHT22;37915;53.254;6.598;2023-09-19T01:52:36;13.80;99.90
51884;DHT22;37915;53.254;6.598;2023-09-19T01:55:09;13.80;99.90
51884;DHT22;37915;53.254;6.598;2023-09-19T01:57:42;13.80;99.90
51884;DHT22;37915;53.254;6.598;2023-09-19T02:00:13;13.80;99.90
51884;DHT22;37915;53.254;6.598;2023-09-19T02:02:42;13.80;99.90
51884;DHT22;37915;53.254;6.598;2023-09-19T02:05:10;13.70;99.90
51884;DHT22;37915;53.254;6.598;2023-09-19T02:07:36;13.70;99.90
51884;DHT22;37915;53.254;6.598;2023-09-19T02:10:04;13.70;99.90
51884;DHT22;37915;53.254;6.598;2023-09-19T02:12:31;13.70;99.90
51884;DHT22;37915;53.254;6.598;2023-09-19T02:14:58;13.70;99.90
51884;DHT22;37915;53.254;6.598;2023-09-19T02:17:27;13.70;99.90
51884;DHT22;37915;53.254;6.598;2023-09-19T02:19:54;13.60;99.90
51884;DHT22;37915;53.254;6.598;2023-09-19T02:22:23;13.70;99.90
51884;DHT22;37915;53.254;6.598;2023-09-19T02:24:50;13.60;99.90
51884;DHT22;37915;53.254;6.598;2023-09-19T02:27:16;13.60;99.90
51884;DHT22;37915;53.254;6.598;2023-09-19T02:29:43;13.60;99.90
51884;DHT22;37915;53.254;6.598;2023-09-19T02:32:08;13.50;99.90
51884;DHT22;37915;53.254;6.598;2023-09-19T02:34:37;13.50;99.90
51884;DHT22;37915;53.254;6.598;2023-09-19T02:37:07;13.50;99.90
51884;DHT22;37915;53.254;6.598;2023-09-19T02:39:38;13.50;99.90
51884;DHT22;37915;53.254;6.598;2023-09-19T02:42:04;13.50;99.90
51884;DHT22;37915;53.254;6.598;2023-09-19T02:44:30;13.40;99.90
51884;DHT22;37915;53.254;6.598;2023-09-19T02:46:56;13.50;99.90
51884;DHT22;37915;53.254;6.598;2023-09-19T02:49:23;13.40;99.90
51884;DHT22;37915;53.254;6.598;2023-09-19T02:51:49;13.40;99.90
51884;DHT22;37915;53.254;6.598;2023-09-19T02:54:14;13.50;99.90
51884;DHT22;37915;53.254;6.598;2023-09-19T02:56:41;13.40;99.90
51884;DHT22;37915;53.254;6.598;2023-09-19T02:59:07;13.40;99.90
51884;DHT22;37915;53.254;6.598;2023-09-19T03:01:35;13.40;99.90
51884;DHT22;37915;53.254;6.598;2023-09-19T03:04:02;13.40;99.90
51884;DHT22;37915;53.254;6.598;2023-09-19T03:06:28;13.40;99.90
51884;DHT22;37915;53.254;6.598;2023-09-19T03:08:56;13.40;99.90
51884;DHT22;37915;53.254;6.598;2023-09-19T03:11:22;13.40;99.90
51884;DHT22;37915;53.254;6.598;2023-09-19T03:13:52;13.40;99.90
51884;DHT22;37915;53.254;6.598;2023-09-19T03:16:18;13.40;99.90
51884;DHT22;37915;53.254;6.598;2023-09-19T03:18:47;13.40;99.90
51884;DHT22;37915;53.254;6.598;2023-09-19T03:21:15;13.40;99.90
51884;DHT22;37915;53.254;6.598;2023-09-19T03:23:41;13.40;99.90
51884;DHT22;37915;53.254;6.598;2023-09-19T03:26:08;13.40;99.90
51884;DHT22;37915;53.254;6.598;2023-09-19T03:28:34;13.40;99.90
51884;DHT22;37915;53.254;6.598;2023-09-19T03:31:05;13.40;99.90
51884;DHT22;37915;53.254;6.598;2023-09-19T03:33:32;13.40;99.90
51884;DHT22;37915;53.254;6.598;2023-09-19T03:35:59;13.40;99.90
51884;DHT22;37915;53.254;6.598;2023-09-19T03:38:26;13.40;99.90
51884;DHT22;37915;53.254;6.598;2023-09-19T03:40:52;13.30;99.90
51884;DHT22;37915;53.254;6.598;2023-09-19T03:43:18;13.40;99.90
51884;DHT22;37915;53.254;6.598;2023-09-19T03:45:44;13.40;99.90
51884;DHT22;37915;53.254;6.598;2023-09-19T03:48:12;13.40;99.90
51884;DHT22;37915;53.254;6.598;2023-09-19T03:50:38;13.40;99.90
51884;DHT22;37915;53.254;6.598;2023-09-19T03:53:04;13.40;99.90
51884;DHT22;37915;53.254;6.598;2023-09-19T03:55:32;13.40;99.90
51884;DHT22;37915;53.254;6.598;2023-09-19T03:58:01;13.40;99.90
51884;DHT22;37915;53.254;6.598;2023-09-19T04:00:27;13.40;99.90
51884;DHT22;37915;53.254;6.598;2023-09-19T04:02:55;13.40;99.90
51884;DHT22;37915;53.254;6.598;2023-09-19T04:05:25;13.40;99.90
51884;DHT22;37915;53.254;6.598;2023-09-19T04:07:51;13.30;99.90
51884;DHT22;37915;53.254;6.598;2023-09-19T04:10:17;13.30;99.90
51884;DHT22;37915;53.254;6.598;2023-09-19T04:12:52;13.40;99.90
51884;DHT22;37915;53.254;6.598;2023-09-19T04:15:19;13.30;99.90
51884;DHT22;37915;53.254;6.598;2023-09-19T04:17:44;13.30;99.90
51884;DHT22;37915;53.254;6.598;2023-09-19T04:20:10;13.30;99.90
51884;DHT22;37915;53.254;6.598;2023-09-19T04:22:38;13.30;99.90
51884;DHT22;37915;53.254;6.598;2023-09-19T04:25:05;13.30;99.90
51884;DHT22;37915;53.254;6.598;2023-09-19T04:27:32;13.30;99.90
51884;DHT22;37915;53.254;6.598;2023-09-19T04:29:58;13.30;99.90
51884;DHT22;37915;53.254;6.598;2023-09-19T04:32:28;13.30;99.90
51884;DHT22;37915;53.254;6.598;2023-09-19T04:34:54;13.30;99.90
51884;DHT22;37915;53.254;6.598;2023-09-19T04:37:20;13.30;99.90
51884;DHT22;37915;53.254;6.598;2023-09-19T04:39:47;13.30;99.90
51884;DHT22;37915;53.254;6.598;2023-09-19T04:42:13;13.40;99.90
51884;DHT22;37915;53.254;6.598;2023-09-19T04:44:40;13.40;99.90
51884;DHT22;37915;53.254;6.598;2023-09-19T04:47:05;13.40;99.90
51884;DHT22;37915;53.254;6.598;2023-09-19T04:49:31;13.30;99.90
51884;DHT22;37915;53.254;6.598;2023-09-19T04:51:57;13.40;99.90
51884;DHT22;37915;53.254;6.598;2023-09-19T04:54:23;13.30;99.90
51884;DHT22;37915;53.254;6.598;2023-09-19T04:56:48;13.30;99.90
51884;DHT22;37915;53.254;6.598;2023-09-19T04:59:14;13.40;99.90
51884;DHT22;37915;53.254;6.598;2023-09-19T05:01:41;13.30;99.90
51884;DHT22;37915;53.254;6.598;2023-09-19T05:04:06;13.40;99.90
51884;DHT22;37915;53.254;6.598;2023-09-19T05:06:32;13.40;99.90
51884;DHT22;37915;53.254;6.598;2023-09-19T05:08:59;13.30;99.90
51884;DHT22;37915;53.254;6.598;2023-09-19T05:11:26;13.40;99.90
51884;DHT22;37915;53.254;6.598;2023-09-19T05:13:52;13.40;99.90
51884;DHT22;37915;53.254;6.598;2023-09-19T05:16:20;13.40;99.90
51884;DHT22;37915;53.254;6.598;2023-09-19T05:18:46;13.40;99.90
51884;DHT22;37915;53.254;6.598;2023-09-19T05:21:12;13.40;99.90
51884;DHT22;37915;53.254;6.598;2023-09-19T05:23:38;13.40;99.90
51884;DHT22;37915;53.254;6.598;2023-09-19T05:26:04;13.40;99.90
51884;DHT22;37915;53.254;6.598;2023-09-19T05:28:30;13.50;99.90
51884;DHT22;37915;53.254;6.598;2023-09-19T05:31:03;13.40;99.90
51884;DHT22;37915;53.254;6.598;2023-09-19T05:33:28;13.50;99.90
51884;DHT22;37915;53.254;6.598;2023-09-19T05:35:57;13.50;99.90
51884;DHT22;37915;53.254;6.598;2023-09-19T05:38:23;13.40;99.90
51884;DHT22;37915;53.254;6.598;2023-09-19T05:40:49;13.50;99.90
51884;DHT22;37915;53.254;6.598;2023-09-19T05:43:15;13.50;99.90
51884;DHT22;37915;53.254;6.598;2023-09-19T05:45:41;13.50;99.90
51884;DHT22;37915;53.254;6.598;2023-09-19T05:48:08;13.50;99.90
51884;DHT22;37915;53.254;6.598;2023-09-19T05:50:34;13.60;99.90
51884;DHT22;37915;53.254;6.598;2023-09-19T05:53:00;13.60;99.90
51884;DHT22;37915;53.254;6.598;2023-09-19T05:55:26;13.60;99.90
51884;DHT22;37915;53.254;6.598;2023-09-19T05:57:52;13.60;99.90
51884;DHT22;37915;53.254;6.598;2023-09-19T06:00:22;13.60;99.90
51884;DHT22;37915;53.254;6.598;2023-09-19T06:02:52;13.70;99.90
51884;DHT22;37915;53.254;6.598;2023-09-19T06:05:18;13.70;99.90
51884;DHT22;37915;53.254;6.598;2023-09-19T06:07:43;13.70;99.90
51884;DHT22;37915;53.254;6.598;2023-09-19T06:10:09;13.70;99.90
51884;DHT22;37915;53.254;6.598;2023-09-19T06:12:39;13.80;99.90
51884;DHT22;37915;53.254;6.598;2023-09-19T06:15:06;13.80;99.90
51884;DHT22;37915;53.254;6.598;2023-09-19T06:17:34;13.80;99.90
51884;DHT22;37915;53.254;6.598;2023-09-19T06:20:05;13.80;99.90
51884;DHT22;37915;53.254;6.598;2023-09-19T06:22:36;13.80;99.90
51884;DHT22;37915;53.254;6.598;2023-09-19T06:25:03;13.90;99.90
51884;DHT22;37915;53.254;6.598;2023-09-19T06:27:29;13.90;99.90
51884;DHT22;37915;53.254;6.598;2023-09-19T06:29:55;13.80;99.90
51884;DHT22;37915;53.254;6.598;2023-09-19T06:32:27;13.90;99.90
51884;DHT22;37915;53.254;6.598;2023-09-19T06:34:53;13.90;99.90
51884;DHT22;37915;53.254;6.598;2023-09-19T06:37:20;13.90;99.90
51884;DHT22;37915;53.254;6.598;2023-09-19T06:39:47;14.00;99.90
51884;DHT22;37915;53.254;6.598;2023-09-19T06:42:15;14.00;99.90
51884;DHT22;37915;53.254;6.598;2023-09-19T06:44:43;14.00;99.90
51884;DHT22;37915;53.254;6.598;2023-09-19T06:47:08;14.10;99.90
51884;DHT22;37915;53.254;6.598;2023-09-19T06:49:36;14.00;99.90
51884;DHT22;37915;53.254;6.598;2023-09-19T06:52:02;14.10;99.90
51884;DHT22;37915;53.254;6.598;2023-09-19T06:54:28;14.10;99.90
51884;DHT22;37915;53.254;6.598;2023-09-19T06:56:57;14.10;99.90
51884;DHT22;37915;53.254;6.598;2023-09-19T06:59:25;14.20;99.90
51884;DHT22;37915;53.254;6.598;2023-09-19T07:01:51;14.20;99.90
51884;DHT22;37915;53.254;6.598;2023-09-19T07:04:17;14.30;99.90
51884;DHT22;37915;53.254;6.598;2023-09-19T07:06:49;14.30;99.90
51884;DHT22;37915;53.254;6.598;2023-09-19T07:09:15;14.30;99.90
51884;DHT22;37915;53.254;6.598;2023-09-19T07:11:42;14.40;99.90
51884;DHT22;37915;53.254;6.598;2023-09-19T07:14:08;14.50;99.90
51884;DHT22;37915;53.254;6.598;2023-09-19T07:16:38;14.50;99.90
51884;DHT22;37915;53.254;6.598;2023-09-19T07:19:05;14.50;99.90
51884;DHT22;37915;53.254;6.598;2023-09-19T07:21:30;14.60;99.90
51884;DHT22;37915;53.254;6.598;2023-09-19T07:23:59;14.60;99.90
51884;DHT22;37915;53.254;6.598;2023-09-19T07:26:26;14.60;99.90
51884;DHT22;37915;53.254;6.598;2023-09-19T07:28:53;14.60;99.90
51884;DHT22;37915;53.254;6.598;2023-09-19T07:31:19;14.60;99.90
51884;DHT22;37915;53.254;6.598;2023-09-19T07:33:45;14.60;99.90
51884;DHT22;37915;53.254;6.598;2023-09-19T07:36:11;14.60;99.90
51884;DHT22;37915;53.254;6.598;2023-09-19T07:38:39;14.60;99.90
51884;DHT22;37915;53.254;6.598;2023-09-19T07:41:05;14.60;99.90
51884;DHT22;37915;53.254;6.598;2023-09-19T07:43:31;14.60;99.90
51884;DHT22;37915;53.254;6.598;2023-09-19T07:45:57;14.60;99.90
51884;DHT22;37915;53.254;6.598;2023-09-19T07:48:26;14.70;99.90
51884;DHT22;37915;53.254;6.598;2023-09-19T07:50:51;14.70;99.90
51884;DHT22;37915;53.254;6.598;2023-09-19T07:53:17;14.70;99.90
51884;DHT22;37915;53.254;6.598;2023-09-19T07:55:43;14.80;99.90
51884;DHT22;37915;53.254;6.598;2023-09-19T07:58:13;14.80;99.90
51884;DHT22;37915;53.254;6.598;2023-09-19T08:00:41;14.90;99.90
51884;DHT22;37915;53.254;6.598;2023-09-19T08:03:07;14.90;99.90
51884;DHT22;37915;53.254;6.598;2023-09-19T08:05:34;14.90;99.90
51884;DHT22;37915;53.254;6.598;2023-09-19T08:08:00;14.90;99.90
51884;DHT22;37915;53.254;6.598;2023-09-19T08:10:26;14.90;99.90
51884;DHT22;37915;53.254;6.598;2023-09-19T08:12:53;14.90;99.90
51884;DHT22;37915;53.254;6.598;2023-09-19T08:15:23;15.00;99.90
51884;DHT22;37915;53.254;6.598;2023-09-19T08:17:49;15.00;99.90
51884;DHT22;37915;53.254;6.598;2023-09-19T08:20:16;15.10;99.90
51884;DHT22;37915;53.254;6.598;2023-09-19T08:22:53;15.20;99.90
51884;DHT22;37915;53.254;6.598;2023-09-19T08:25:23;15.30;99.90
51884;DHT22;37915;53.254;6.598;2023-09-19T08:27:49;15.40;99.90
51884;DHT22;37915;53.254;6.598;2023-09-19T08:30:19;15.40;99.90
51884;DHT22;37915;53.254;6.598;2023-09-19T08:33:07;15.40;99.90
51884;DHT22;37915;53.254;6.598;2023-09-19T08:35:33;15.50;99.90
51884;DHT22;37915;53.254;6.598;2023-09-19T08:37:59;15.50;99.90
51884;DHT22;37915;53.254;6.598;2023-09-19T08:40:30;15.50;99.90
51884;DHT22;37915;53.254;6.598;2023-09-19T08:42:59;15.60;99.90
51884;DHT22;37915;53.254;6.598;2023-09-19T08:45:26;15.70;99.90
51884;DHT22;37915;53.254;6.598;2023-09-19T08:51:02;15.80;99.90
51884;DHT22;37915;53.254;6.598;2023-09-19T08:53:47;15.90;99.90
51884;DHT22;37915;53.254;6.598;2023-09-19T08:56:17;15.90;99.90
51884;DHT22;37915;53.254;6.598;2023-09-19T08:59:00;16.00;99.90
51884;DHT22;37915;53.254;6.598;2023-09-19T09:01:28;16.00;99.90
51884;DHT22;37915;53.254;6.598;2023-09-19T09:03:55;16.00;99.90
51884;DHT22;37915;53.254;6.598;2023-09-19T09:06:23;16.00;99.90
51884;DHT22;37915;53.254;6.598;2023-09-19T09:13:45;16.00;99.90
51884;DHT22;37915;53.254;6.598;2023-09-19T09:16:13;16.10;99.90
51884;DHT22;37915;53.254;6.598;2023-09-19T09:18:39;16.10;99.90
51884;DHT22;37915;53.254;6.598;2023-09-19T09:21:06;16.20;99.90
51884;DHT22;37915;53.254;6.598;2023-09-19T09:23:32;16.20;99.90
51884;DHT22;37915;53.254;6.598;2023-09-19T09:25:59;16.30;99.90
51884;DHT22;37915;53.254;6.598;2023-09-19T09:28:30;16.30;99.90
51884;DHT22;37915;53.254;6.598;2023-09-19T09:30:57;16.30;99.90
51884;DHT22;37915;53.254;6.598;2023-09-19T09:33:26;16.30;99.90
51884;DHT22;37915;53.254;6.598;2023-09-19T09:36:01;16.30;99.90
51884;DHT22;37915;53.254;6.598;2023-09-19T09:38:45;16.40;99.90
51884;DHT22;37915;53.254;6.598;2023-09-19T09:41:12;16.40;99.90
51884;DHT22;37915;53.254;6.598;2023-09-19T09:43:42;16.50;99.90
51884;DHT22;37915;53.254;6.598;2023-09-19T09:46:16;16.50;99.90
51884;DHT22;37915;53.254;6.598;2023-09-19T09:51:33;16.50;99.90
51884;DHT22;37915;53.254;6.598;2023-09-19T09:54:18;16.50;99.90
51884;DHT22;37915;53.254;6.598;2023-09-19T10:02:09;16.60;99.20
51884;DHT22;37915;53.254;6.598;2023-09-19T10:04:39;16.60;99.50
51884;DHT22;37915;53.254;6.598;2023-09-19T10:07:30;16.70;98.50
51884;DHT22;37915;53.254;6.598;2023-09-19T10:10:05;16.70;97.90
51884;DHT22;37915;53.254;6.598;2023-09-19T10:12:54;16.80;98.80
51884;DHT22;37915;53.254;6.598;2023-09-19T10:15:22;16.90;98.50
51884;DHT22;37915;53.254;6.598;2023-09-19T10:17:52;17.00;97.20
51884;DHT22;37915;53.254;6.598;2023-09-19T10:20:21;17.20;96.50
51884;DHT22;37915;53.254;6.598;2023-09-19T10:23:00;17.20;94.20
51884;DHT22;37915;53.254;6.598;2023-09-19T10:25:27;17.30;93.40
51884;DHT22;37915;53.254;6.598;2023-09-19T10:28:02;17.40;92.90
51884;DHT22;37915;53.254;6.598;2023-09-19T10:30:31;17.40;91.70
51884;DHT22;37915;53.254;6.598;2023-09-19T10:33:02;17.40;90.50
51884;DHT22;37915;53.254;6.598;2023-09-19T10:35:28;17.50;90.80
51884;DHT22;37915;53.254;6.598;2023-09-19T10:38:00;17.50;88.50
51884;DHT22;37915;53.254;6.598;2023-09-19T10:40:29;17.50;89.40
51884;DHT22;37915;53.254;6.598;2023-09-19T10:43:05;17.50;89.30
51884;DHT22;37915;53.254;6.598;2023-09-19T10:45:35;17.40;87.20
51884;DHT22;37915;53.254;6.598;2023-09-19T10:48:01;17.40;86.90
51884;DHT22;37915;53.254;6.598;2023-09-19T10:50:41;17.40;83.90
51884;DHT22;37915;53.254;6.598;2023-09-19T10:53:11;17.40;81.10
51884;DHT22;37915;53.254;6.598;2023-09-19T10:55:38;17.50;82.90
51884;DHT22;37915;53.254;6.598;2023-09-19T10:58:05;17.40;81.50
51884;DHT22;37915;53.254;6.598;2023-09-19T11:01:06;17.50;84.40
51884;DHT22;37915;53.254;6.598;2023-09-19T11:03:38;17.40;71.80
51884;DHT22;37915;53.254;6.598;2023-09-19T11:06:16;17.40;79.80
51884;DHT22;37915;53.254;6.598;2023-09-19T11:11:39;17.40;80.60
51884;DHT22;37915;53.254;6.598;2023-09-19T11:30:32;17.50;73.20
51884;DHT22;37915;53.254;6.598;2023-09-19T11:33:21;17.50;76.80
51884;DHT22;37915;53.254;6.598;2023-09-19T11:43:54;17.60;78.00
51884;DHT22;37915;53.254;6.598;2023-09-19T11:46:59;17.60;78.80
51884;DHT22;37915;53.254;6.598;2023-09-19T11:49:30;17.60;73.00
51884;DHT22;37915;53.254;6.598;2023-09-19T11:51:58;17.70;77.80
51884;DHT22;37915;53.254;6.598;2023-09-19T11:54:27;17.70;74.30
51884;DHT22;37915;53.254;6.598;2023-09-19T11:56:58;17.60;74.20
51884;DHT22;37915;53.254;6.598;2023-09-19T11:59:29;17.70;72.80
51884;DHT22;37915;53.254;6.598;2023-09-19T12:02:06;17.70;73.60
51884;DHT22;37915;53.254;6.598;2023-09-19T12:07:05;17.70;74.10
51884;DHT22;37915;53.254;6.598;2023-09-19T12:09:39;17.60;74.90
51884;DHT22;37915;53.254;6.598;2023-09-19T12:12:10;17.60;74.20
51884;DHT22;37915;53.254;6.598;2023-09-19T12:14:38;17.50;76.20
51884;DHT22;37915;53.254;6.598;2023-09-19T12:17:04;17.50;78.80
51884;DHT22;37915;53.254;6.598;2023-09-19T12:19:30;17.40;80.40
51884;DHT22;37915;53.254;6.598;2023-09-19T12:22:00;17.40;81.50
51884;DHT22;37915;53.254;6.598;2023-09-19T12:24:34;17.40;77.70
51884;DHT22;37915;53.254;6.598;2023-09-19T12:27:05;17.40;82.10
51884;DHT22;37915;53.254;6.598;2023-09-19T12:29:48;17.40;81.30
51884;DHT22;37915;53.254;6.598;2023-09-19T12:32:36;17.40;82.50
51884;DHT22;37915;53.254;6.598;2023-09-19T12:35:06;17.40;81.70
51884;DHT22;37915;53.254;6.598;2023-09-19T12:37:45;17.40;84.80
51884;DHT22;37915;53.254;6.598;2023-09-19T12:40:21;17.30;90.20
51884;DHT22;37915;53.254;6.598;2023-09-19T12:42:53;17.20;92.00
51884;DHT22;37915;53.254;6.598;2023-09-19T12:45:24;17.10;94.10
51884;DHT22;37915;53.254;6.598;2023-09-19T12:53:34;17.20;93.20
51884;DHT22;37915;53.254;6.598;2023-09-19T12:56:03;17.20;92.40
51884;DHT22;37915;53.254;6.598;2023-09-19T12:58:34;17.30;92.20
51884;DHT22;37915;53.254;6.598;2023-09-19T13:01:00;17.40;91.80
51884;DHT22;37915;53.254;6.598;2023-09-19T13:03:28;17.40;91.50
51884;DHT22;37915;53.254;6.598;2023-09-19T13:06:03;17.50;90.90
51884;DHT22;37915;53.254;6.598;2023-09-19T13:08:34;17.50;90.60
51884;DHT22;37915;53.254;6.598;2023-09-19T13:11:11;17.50;90.00
51884;DHT22;37915;53.254;6.598;2023-09-19T13:13:49;17.50;90.00
51884;DHT22;37915;53.254;6.598;2023-09-19T13:16:19;17.50;88.60
51884;DHT22;37915;53.254;6.598;2023-09-19T13:18:51;17.40;89.90
51884;DHT22;37915;53.254;6.598;2023-09-19T13:21:31;17.40;90.00
51884;DHT22;37915;53.254;6.598;2023-09-19T13:24:24;17.50;90.50
51884;DHT22;37915;53.254;6.598;2023-09-19T13:26:53;17.50;90.20
51884;DHT22;37915;53.254;6.598;2023-09-19T13:29:19;17.40;91.10
51884;DHT22;37915;53.254;6.598;2023-09-19T13:31:49;17.40;92.30
51884;DHT22;37915;53.254;6.598;2023-09-19T13:34:15;17.30;94.80
51884;DHT22;37915;53.254;6.598;2023-09-19T13:36:43;17.20;96.50
51884;DHT22;37915;53.254;6.598;2023-09-19T13:39:09;17.10;98.00
51884;DHT22;37915;53.254;6.598;2023-09-19T13:41:35;17.00;98.20
51884;DHT22;37915;53.254;6.598;2023-09-19T13:44:05;17.00;98.90
51884;DHT22;37915;53.254;6.598;2023-09-19T13:46:31;17.00;99.20
51884;DHT22;37915;53.254;6.598;2023-09-19T13:48:59;17.00;99.40
51884;DHT22;37915;53.254;6.598;2023-09-19T13:51:31;17.00;99.20
51884;DHT22;37915;53.254;6.598;2023-09-19T13:53:57;17.10;99.30
51884;DHT22;37915;53.254;6.598;2023-09-19T13:56:23;17.10;99.90
51884;DHT22;37915;53.254;6.598;2023-09-19T13:58:54;17.20;98.80
51884;DHT22;37915;53.254;6.598;2023-09-19T14:01:20;17.30;98.10
51884;DHT22;37915;53.254;6.598;2023-09-19T14:03:46;17.30;98.00
51884;DHT22;37915;53.254;6.598;2023-09-19T14:06:15;17.30;97.10
51884;DHT22;37915;53.254;6.598;2023-09-19T14:08:41;17.40;97.20
51884;DHT22;37915;53.254;6.598;2023-09-19T14:11:09;17.40;96.90
51884;DHT22;37915;53.254;6.598;2023-09-19T14:13:35;17.50;96.10
51884;DHT22;37915;53.254;6.598;2023-09-19T14:16:05;17.50;96.20
51884;DHT22;37915;53.254;6.598;2023-09-19T14:18:31;17.50;96.30
51884;DHT22;37915;53.254;6.598;2023-09-19T14:20:57;17.50;96.50
51884;DHT22;37915;53.254;6.598;2023-09-19T14:23:23;17.60;95.80
51884;DHT22;37915;53.254;6.598;2023-09-19T14:25:50;17.60;95.40
51884;DHT22;37915;53.254;6.598;2023-09-19T14:28:16;17.60;95.70
51884;DHT22;37915;53.254;6.598;2023-09-19T14:30:41;17.60;95.70
51884;DHT22;37915;53.254;6.598;2023-09-19T14:33:07;17.70;95.60
51884;DHT22;37915;53.254;6.598;2023-09-19T14:35:33;17.70;95.20
51884;DHT22;37915;53.254;6.598;2023-09-19T14:37:58;17.70;94.50
51884;DHT22;37915;53.254;6.598;2023-09-19T14:40:24;17.70;93.30
51884;DHT22;37915;53.254;6.598;2023-09-19T14:42:51;17.70;93.60
51884;DHT22;37915;53.254;6.598;2023-09-19T14:45:16;17.70;93.30
51884;DHT22;37915;53.254;6.598;2023-09-19T14:47:45;17.80;92.80
51884;DHT22;37915;53.254;6.598;2023-09-19T14:50:11;17.80;92.70
51884;DHT22;37915;53.254;6.598;2023-09-19T14:52:38;17.80;92.40
51884;DHT22;37915;53.254;6.598;2023-09-19T14:55:06;17.80;92.70
51884;DHT22;37915;53.254;6.598;2023-09-19T14:57:34;17.80;93.40
51884;DHT22;37915;53.254;6.598;2023-09-19T14:59:59;17.70;94.40
51884;DHT22;37915;53.254;6.598;2023-09-19T15:02:25;17.60;95.10
51884;DHT22;37915;53.254;6.598;2023-09-19T15:04:52;17.60;95.90
51884;DHT22;37915;53.254;6.598;2023-09-19T15:07:18;17.60;97.50
51884;DHT22;37915;53.254;6.598;2023-09-19T15:09:44;17.50;98.00
51884;DHT22;37915;53.254;6.598;2023-09-19T15:12:11;17.40;98.70
51884;DHT22;37915;53.254;6.598;2023-09-19T15:14:40;17.40;99.60
51884;DHT22;37915;53.254;6.598;2023-09-19T15:17:07;17.40;99.90
51884;DHT22;37915;53.254;6.598;2023-09-19T15:19:33;17.30;99.90
51884;DHT22;37915;53.254;6.598;2023-09-19T15:21:58;17.30;99.90
51884;DHT22;37915;53.254;6.598;2023-09-19T15:24:25;17.30;99.90
51884;DHT22;37915;53.254;6.598;2023-09-19T15:26:52;17.30;99.90
51884;DHT22;37915;53.254;6.598;2023-09-19T15:29:18;17.20;99.90
51884;DHT22;37915;53.254;6.598;2023-09-19T15:31:45;17.20;99.90
51884;DHT22;37915;53.254;6.598;2023-09-19T15:34:11;17.20;99.90
51884;DHT22;37915;53.254;6.598;2023-09-19T15:36:39;17.10;99.90
51884;DHT22;37915;53.254;6.598;2023-09-19T15:39:08;17.10;99.90
51884;DHT22;37915;53.254;6.598;2023-09-19T15:41:39;17.00;99.90
51884;DHT22;37915;53.254;6.598;2023-09-19T15:44:11;16.90;99.90
51884;DHT22;37915;53.254;6.598;2023-09-19T15:46:37;16.80;99.90
51884;DHT22;37915;53.254;6.598;2023-09-19T15:49:03;16.70;99.90
51884;DHT22;37915;53.254;6.598;2023-09-19T15:51:29;16.80;99.90
51884;DHT22;37915;53.254;6.598;2023-09-19T15:53:57;16.70;99.90
51884;DHT22;37915;53.254;6.598;2023-09-19T15:56:23;16.70;99.90
51884;DHT22;37915;53.254;6.598;2023-09-19T15:58:54;16.60;99.90
51884;DHT22;37915;53.254;6.598;2023-09-19T16:01:21;16.60;99.90
51884;DHT22;37915;53.254;6.598;2023-09-19T16:03:49;16.70;99.90
51884;DHT22;37915;53.254;6.598;2023-09-19T16:06:20;16.70;99.90
51884;DHT22;37915;53.254;6.598;2023-09-19T16:08:49;16.70;99.90
51884;DHT22;37915;53.254;6.598;2023-09-19T16:11:16;16.60;99.90
51884;DHT22;37915;53.254;6.598;2023-09-19T16:13:42;16.60;99.90
51884;DHT22;37915;53.254;6.598;2023-09-19T16:16:09;16.70;99.90
51884;DHT22;37915;53.254;6.598;2023-09-19T16:18:48;16.70;99.90
51884;DHT22;37915;53.254;6.598;2023-09-19T16:21:15;16.70;99.90
51884;DHT22;37915;53.254;6.598;2023-09-19T16:23:48;16.80;99.90
51884;DHT22;37915;53.254;6.598;2023-09-19T16:26:16;16.70;99.90
51884;DHT22;37915;53.254;6.598;2023-09-19T16:28:44;16.70;99.90
51884;DHT22;37915;53.254;6.598;2023-09-19T16:31:10;16.70;99.90
51884;DHT22;37915;53.254;6.598;2023-09-19T16:33:37;16.70;99.90
51884;DHT22;37915;53.254;6.598;2023-09-19T16:36:10;16.70;99.90
51884;DHT22;37915;53.254;6.598;2023-09-19T16:38:37;16.70;99.90
51884;DHT22;37915;53.254;6.598;2023-09-19T16:41:03;16.60;99.90
51884;DHT22;37915;53.254;6.598;2023-09-19T16:43:30;16.60;99.90
51884;DHT22;37915;53.254;6.598;2023-09-19T16:46:06;16.60;99.90
51884;DHT22;37915;53.254;6.598;2023-09-19T16:48:40;16.60;99.90
51884;DHT22;37915;53.254;6.598;2023-09-19T16:51:11;16.60;99.90
51884;DHT22;37915;53.254;6.598;2023-09-19T16:53:39;16.50;99.90
51884;DHT22;37915;53.254;6.598;2023-09-19T16:56:07;16.50;99.90